sensor_id;sensor_type;location;lat;lon;timestamp;pressure;altitude;pressure_sealevel;temperature;humidity
20003;BME280;10162;41.600;23.806;2023-03-03T00:02:13;95078.16;;;7.41;100.00
20003;BME280;10162;41.600;23.806;2023-03-03T00:04:44;95094.78;;;7.40;100.00
20003;BME280;10162;41.600;23.806;2023-03-03T00:07:11;95105.56;;;7.52;100.00
20003;BME280;10162;41.600;23.806;2023-03-03T00:09:48;95076.47;;;7.33;100.00
20003;BME280;10162;41.600;23.806;2023-03-03T00:12:29;95107.44;;;7.58;100.00
20003;BME280;10162;41.600;23.806;2023-03-03T00:14:55;95076.03;;;7.59;100.00
20003;BME280;10162;41.600;23.806;2023-03-03T00:17:29;95066.59;;;7.29;100.00
20003;BME280;10162;41.600;23.806;2023-03-03T00:20:24;95087.97;;;7.54;100.00
20003;BME280;10162;41.600;23.806;2023-03-03T00:22:52;95082.75;;;7.54;100.00
20003;BME280;10162;41.600;23.806;2023-03-03T00:27:50;95066.66;;;7.35;100.00
20003;BME280;10162;41.600;23.806;2023-03-03T00:33:52;95080.59;;;7.42;100.00
20003;BME280;10162;41.600;23.806;2023-03-03T00:36:35;95064.72;;;7.52;100.00
20003;BME280;10162;41.600;23.806;2023-03-03T00:45:43;95075.78;;;7.54;100.00
20003;BME280;10162;41.600;23.806;2023-03-03T00:53:42;95071.81;;;7.58;100.00
20003;BME280;10162;41.600;23.806;2023-03-03T00:56:08;95067.69;;;7.64;100.00
20003;BME280;10162;41.600;23.806;2023-03-03T00:58:36;95077.66;;;7.75;100.00
20003;BME280;10162;41.600;23.806;2023-03-03T01:01:04;95061.34;;;7.52;100.00
20003;BME280;10162;41.600;23.806;2023-03-03T01:03:39;95068.34;;;7.51;100.00
20003;BME280;10162;41.600;23.806;2023-03-03T01:06:05;95047.31;;;7.38;100.00
20003;BME280;10162;41.600;23.806;2023-03-03T01:12:41;95033.25;;;7.47;100.00
20003;BME280;10162;41.600;23.806;2023-03-03T01:15:13;95038.81;;;7.44;100.00
20003;BME280;10162;41.600;23.806;2023-03-03T01:17:39;95037.84;;;7.45;100.00
20003;BME280;10162;41.600;23.806;2023-03-03T01:20:26;95047.75;;;7.41;100.00
20003;BME280;10162;41.600;23.806;2023-03-03T01:22:52;95030.53;;;7.26;100.00
20003;BME280;10162;41.600;23.806;2023-03-03T01:25:18;95046.88;;;7.34;100.00
20003;BME280;10162;41.600;23.806;2023-03-03T01:27:43;95024.78;;;7.30;100.00
20003;BME280;10162;41.600;23.806;2023-03-03T01:30:20;95003.59;;;7.19;100.00
20003;BME280;10162;41.600;23.806;2023-03-03T01:32:46;95016.59;;;7.19;100.00
20003;BME280;10162;41.600;23.806;2023-03-03T01:35:12;94984.97;;;7.15;100.00
20003;BME280;10162;41.600;23.806;2023-03-03T01:37:39;95031.81;;;7.59;100.00
20003;BME280;10162;41.600;23.806;2023-03-03T01:44:15;95038.84;;;7.73;100.00
20003;BME280;10162;41.600;23.806;2023-03-03T01:47:00;95026.16;;;7.70;100.00
20003;BME280;10162;41.600;23.806;2023-03-03T01:49:53;95022.41;;;7.73;100.00
20003;BME280;10162;41.600;23.806;2023-03-03T01:52:28;95029.16;;;7.67;100.00
20003;BME280;10162;41.600;23.806;2023-03-03T01:55:02;95051.19;;;7.86;100.00
20003;BME280;10162;41.600;23.806;2023-03-03T01:57:36;95047.91;;;7.77;100.00
20003;BME280;10162;41.600;23.806;2023-03-03T02:00:09;95046.75;;;7.80;100.00
20003;BME280;10162;41.600;23.806;2023-03-03T02:02:41;95035.69;;;7.78;100.00
20003;BME280;10162;41.600;23.806;2023-03-03T02:05:08;95025.63;;;7.60;100.00
20003;BME280;10162;41.600;23.806;2023-03-03T02:07:34;95041.16;;;7.54;100.00
20003;BME280;10162;41.600;23.806;2023-03-03T02:10:30;95031.44;;;7.33;100.00
20003;BME280;10162;41.600;23.806;2023-03-03T02:12:57;95040.50;;;7.37;100.00
20003;BME280;10162;41.600;23.806;2023-03-03T02:15:27;95037.72;;;7.38;100.00
20003;BME280;10162;41.600;23.806;2023-03-03T02:17:59;95008.19;;;7.17;100.00
20003;BME280;10162;41.600;23.806;2023-03-03T02:23:16;95030.09;;;7.37;100.00
20003;BME280;10162;41.600;23.806;2023-03-03T02:28:38;95035.13;;;7.53;100.00
20003;BME280;10162;41.600;23.806;2023-03-03T02:34:51;95027.25;;;7.61;100.00
20003;BME280;10162;41.600;23.806;2023-03-03T02:37:24;95031.22;;;7.57;100.00
20003;BME280;10162;41.600;23.806;2023-03-03T02:43:04;95026.97;;;7.41;100.00
20003;BME280;10162;41.600;23.806;2023-03-03T02:45:40;95039.09;;;7.64;100.00
20003;BME280;10162;41.600;23.806;2023-03-03T02:48:07;95014.75;;;7.42;100.00
20003;BME280;10162;41.600;23.806;2023-03-03T02:50:33;95041.50;;;7.65;100.00
20003;BME280;10162;41.600;23.806;2023-03-03T02:52:59;95027.53;;;7.52;100.00
20003;BME280;10162;41.600;23.806;2023-03-03T02:55:25;95016.66;;;7.48;100.00
20003;BME280;10162;41.600;23.806;2023-03-03T02:57:50;95030.13;;;7.52;100.00
20003;BME280;10162;41.600;23.806;2023-03-03T03:00:18;94999.31;;;7.26;100.00
20003;BME280;10162;41.600;23.806;2023-03-03T03:02:43;95003.38;;;7.28;100.00
20003;BME280;10162;41.600;23.806;2023-03-03T03:05:10;95019.34;;;7.40;100.00
20003;BME280;10162;41.600;23.806;2023-03-03T03:07:38;95028.84;;;7.47;100.00
20003;BME280;10162;41.600;23.806;2023-03-03T03:10:15;95045.75;;;7.52;100.00
20003;BME280;10162;41.600;23.806;2023-03-03T03:12:41;95037.03;;;7.44;100.00
20003;BME280;10162;41.600;23.806;2023-03-03T03:15:09;95047.06;;;7.47;100.00
20003;BME280;10162;41.600;23.806;2023-03-03T03:17:39;95049.13;;;7.52;100.00
20003;BME280;10162;41.600;23.806;2023-03-03T03:20:16;95031.34;;;7.41;100.00
20003;BME280;10162;41.600;23.806;2023-03-03T03:22:43;95019.06;;;7.35;100.00
20003;BME280;10162;41.600;23.806;2023-03-03T03:25:09;95040.59;;;7.58;100.00
20003;BME280;10162;41.600;23.806;2023-03-03T03:27:37;95047.97;;;7.55;100.00
20003;BME280;10162;41.600;23.806;2023-03-03T03:33:02;95050.84;;;7.45;100.00
20003;BME280;10162;41.600;23.806;2023-03-03T03:35:27;95047.97;;;7.40;100.00
20003;BME280;10162;41.600;23.806;2023-03-03T03:37:53;95041.69;;;7.49;100.00
20003;BME280;10162;41.600;23.806;2023-03-03T03:40:33;95039.09;;;7.49;100.00
20003;BME280;10162;41.600;23.806;2023-03-03T03:42:59;95038.28;;;7.48;100.00
20003;BME280;10162;41.600;23.806;2023-03-03T03:45:25;95005.66;;;7.09;100.00
20003;BME280;10162;41.600;23.806;2023-03-03T03:47:53;95026.50;;;7.38;100.00
20003;BME280;10162;41.600;23.806;2023-03-03T03:53:41;95032.97;;;7.27;100.00
20003;BME280;10162;41.600;23.806;2023-03-03T03:56:07;95008.91;;;7.25;100.00
20003;BME280;10162;41.600;23.806;2023-03-03T03:59:05;95049.91;;;7.38;100.00
20003;BME280;10162;41.600;23.806;2023-03-03T04:01:33;95058.28;;;7.48;100.00
20003;BME280;10162;41.600;23.806;2023-03-03T04:03:58;95044.72;;;7.38;100.00
20003;BME280;10162;41.600;23.806;2023-03-03T04:06:27;95049.59;;;7.18;100.00
20003;BME280;10162;41.600;23.806;2023-03-03T04:12:00;95016.00;;;7.17;100.00
20003;BME280;10162;41.600;23.806;2023-03-03T04:14:27;95018.50;;;7.25;100.00
20003;BME280;10162;41.600;23.806;2023-03-03T04:16:53;95041.31;;;7.37;100.00
20003;BME280;10162;41.600;23.806;2023-03-03T04:19:41;95048.09;;;7.24;100.00
20003;BME280;10162;41.600;23.806;2023-03-03T04:22:08;95027.97;;;7.18;100.00
20003;BME280;10162;41.600;23.806;2023-03-03T04:24:34;95015.94;;;7.02;100.00
20003;BME280;10162;41.600;23.806;2023-03-03T04:27:01;95030.03;;;7.07;100.00
20003;BME280;10162;41.600;23.806;2023-03-03T04:29:55;95051.56;;;7.16;100.00
20003;BME280;10162;41.600;23.806;2023-03-03T04:32:21;95051.69;;;7.23;100.00
20003;BME280;10162;41.600;23.806;2023-03-03T04:34:47;95005.69;;;6.86;100.00
20003;BME280;10162;41.600;23.806;2023-03-03T04:37:14;95046.72;;;6.90;100.00
20003;BME280;10162;41.600;23.806;2023-03-03T04:39:45;95031.56;;;6.79;100.00
20003;BME280;10162;41.600;23.806;2023-03-03T04:42:11;95039.13;;;6.66;100.00
20003;BME280;10162;41.600;23.806;2023-03-03T04:44:37;95032.78;;;6.69;100.00
20003;BME280;10162;41.600;23.806;2023-03-03T04:47:04;95029.16;;;6.78;100.00
20003;BME280;10162;41.600;23.806;2023-03-03T04:49:33;95055.28;;;6.99;100.00
20003;BME280;10162;41.600;23.806;2023-03-03T04:52:00;95060.66;;;6.97;100.00
20003;BME280;10162;41.600;23.806;2023-03-03T04:54:26;95064.34;;;7.03;100.00
20003;BME280;10162;41.600;23.806;2023-03-03T04:56:53;95059.59;;;6.84;100.00
20003;BME280;10162;41.600;23.806;2023-03-03T04:59:39;95052.13;;;6.89;100.00
20003;BME280;10162;41.600;23.806;2023-03-03T05:02:06;95036.69;;;6.64;100.00
20003;BME280;10162;41.600;23.806;2023-03-03T05:04:38;95029.03;;;6.71;100.00
20003;BME280;10162;41.600;23.806;2023-03-03T05:10:57;95048.81;;;6.72;100.00
20003;BME280;10162;41.600;23.806;2023-03-03T05:13:25;95040.44;;;6.62;100.00
20003;BME280;10162;41.600;23.806;2023-03-03T05:15:55;95036.94;;;6.55;100.00
20003;BME280;10162;41.600;23.806;2023-03-03T05:18:56;95063.81;;;6.62;100.00
20003;BME280;10162;41.600;23.806;2023-03-03T05:21:22;95053.69;;;6.44;100.00
20003;BME280;10162;41.600;23.806;2023-03-03T05:23:48;95038.00;;;6.38;100.00
20003;BME280;10162;41.600;23.806;2023-03-03T05:26:15;95044.59;;;6.48;100.00
20003;BME280;10162;41.600;23.806;2023-03-03T05:28:42;95042.59;;;6.58;100.00
20003;BME280;10162;41.600;23.806;2023-03-03T05:31:09;95069.66;;;6.87;100.00
20003;BME280;10162;41.600;23.806;2023-03-03T05:33:36;95073.88;;;6.65;100.00
20003;BME280;10162;41.600;23.806;2023-03-03T05:36:02;95067.00;;;6.72;100.00
20003;BME280;10162;41.600;23.806;2023-03-03T05:39:04;95082.81;;;6.85;100.00
20003;BME280;10162;41.600;23.806;2023-03-03T05:41:31;95046.97;;;6.58;100.00
20003;BME280;10162;41.600;23.806;2023-03-03T05:44:03;95072.94;;;6.58;100.00
20003;BME280;10162;41.600;23.806;2023-03-03T05:46:29;95085.53;;;6.69;100.00
20003;BME280;10162;41.600;23.806;2023-03-03T05:52:08;95078.13;;;6.58;100.00
20003;BME280;10162;41.600;23.806;2023-03-03T05:54:34;95052.13;;;6.35;100.00
20003;BME280;10162;41.600;23.806;2023-03-03T05:57:00;95069.47;;;6.43;100.00
20003;BME280;10162;41.600;23.806;2023-03-03T06:02:38;95051.31;;;6.66;100.00
20003;BME280;10162;41.600;23.806;2023-03-03T06:05:05;95079.09;;;6.88;100.00
20003;BME280;10162;41.600;23.806;2023-03-03T06:07:32;95070.25;;;6.97;100.00
20003;BME280;10162;41.600;23.806;2023-03-03T06:10:25;95093.06;;;7.10;100.00
20003;BME280;10162;41.600;23.806;2023-03-03T06:12:54;95081.00;;;6.94;100.00
20003;BME280;10162;41.600;23.806;2023-03-03T06:15:23;95090.09;;;7.13;100.00
20003;BME280;10162;41.600;23.806;2023-03-03T06:17:51;95060.53;;;6.91;100.00
20003;BME280;10162;41.600;23.806;2023-03-03T06:20:49;95101.19;;;7.29;100.00
20003;BME280;10162;41.600;23.806;2023-03-03T06:23:16;95102.00;;;7.30;100.00
20003;BME280;10162;41.600;23.806;2023-03-03T06:25:42;95097.63;;;7.07;100.00
20003;BME280;10162;41.600;23.806;2023-03-03T06:28:09;95091.56;;;7.15;100.00
20003;BME280;10162;41.600;23.806;2023-03-03T06:30:35;95090.69;;;7.00;100.00
20003;BME280;10162;41.600;23.806;2023-03-03T06:33:01;95120.19;;;7.30;100.00
20003;BME280;10162;41.600;23.806;2023-03-03T06:35:27;95088.19;;;7.06;100.00
20003;BME280;10162;41.600;23.806;2023-03-03T06:37:53;95104.09;;;7.12;100.00
20003;BME280;10162;41.600;23.806;2023-03-03T06:40:36;95132.59;;;7.42;100.00
20003;BME280;10162;41.600;23.806;2023-03-03T06:43:02;95095.88;;;7.23;100.00
20003;BME280;10162;41.600;23.806;2023-03-03T06:45:28;95135.06;;;7.59;100.00
20003;BME280;10162;41.600;23.806;2023-03-03T06:47:54;95102.34;;;7.27;100.00
20003;BME280;10162;41.600;23.806;2023-03-03T06:50:21;95149.06;;;7.58;100.00
20003;BME280;10162;41.600;23.806;2023-03-03T06:52:50;95113.56;;;7.27;100.00
20003;BME280;10162;41.600;23.806;2023-03-03T06:55:25;95133.78;;;7.40;100.00
20003;BME280;10162;41.600;23.806;2023-03-03T06:57:50;95112.38;;;7.30;100.00
20003;BME280;10162;41.600;23.806;2023-03-03T07:01:00;95137.75;;;7.51;100.00
20003;BME280;10162;41.600;23.806;2023-03-03T07:03:33;95122.91;;;7.36;100.00
20003;BME280;10162;41.600;23.806;2023-03-03T07:06:01;95137.13;;;7.48;100.00
20003;BME280;10162;41.600;23.806;2023-03-03T07:08:49;95105.50;;;7.37;100.00
20003;BME280;10162;41.600;23.806;2023-03-03T07:11:17;95106.13;;;7.62;100.00
20003;BME280;10162;41.600;23.806;2023-03-03T07:13:47;95114.72;;;7.62;100.00
20003;BME280;10162;41.600;23.806;2023-03-03T07:16:15;95124.50;;;7.60;100.00
20003;BME280;10162;41.600;23.806;2023-03-03T07:18:58;95132.09;;;7.99;100.00
20003;BME280;10162;41.600;23.806;2023-03-03T07:21:34;95127.63;;;8.08;100.00
20003;BME280;10162;41.600;23.806;2023-03-03T07:24:17;95097.59;;;7.82;100.00
20003;BME280;10162;41.600;23.806;2023-03-03T07:26:45;95101.03;;;7.98;100.00
20003;BME280;10162;41.600;23.806;2023-03-03T07:29:32;95123.66;;;8.26;100.00
20003;BME280;10162;41.600;23.806;2023-03-03T07:32:00;95120.22;;;8.26;100.00
20003;BME280;10162;41.600;23.806;2023-03-03T07:34:35;95118.66;;;8.40;100.00
20003;BME280;10162;41.600;23.806;2023-03-03T07:37:15;95084.09;;;8.31;100.00
20003;BME280;10162;41.600;23.806;2023-03-03T07:40:00;95119.25;;;8.56;100.00
20003;BME280;10162;41.600;23.806;2023-03-03T07:42:38;95117.16;;;8.66;100.00
20003;BME280;10162;41.600;23.806;2023-03-03T07:45:30;95116.72;;;8.63;100.00
20003;BME280;10162;41.600;23.806;2023-03-03T07:48:09;95089.63;;;8.79;100.00
20003;BME280;10162;41.600;23.806;2023-03-03T07:50:41;95082.44;;;9.23;100.00
20003;BME280;10162;41.600;23.806;2023-03-03T07:53:26;95097.03;;;9.60;100.00
20003;BME280;10162;41.600;23.806;2023-03-03T07:55:54;95084.19;;;9.37;100.00
20003;BME280;10162;41.600;23.806;2023-03-03T07:58:39;95101.66;;;9.65;100.00
20003;BME280;10162;41.600;23.806;2023-03-03T08:01:30;95092.22;;;9.64;100.00
20003;BME280;10162;41.600;23.806;2023-03-03T08:04:01;95066.91;;;9.36;100.00
20003;BME280;10162;41.600;23.806;2023-03-03T08:14:34;95089.75;;;9.83;100.00
20003;BME280;10162;41.600;23.806;2023-03-03T08:17:01;95073.19;;;9.70;100.00
20003;BME280;10162;41.600;23.806;2023-03-03T08:19:33;95079.41;;;10.03;100.00
20003;BME280;10162;41.600;23.806;2023-03-03T08:22:11;95096.25;;;9.66;100.00
20003;BME280;10162;41.600;23.806;2023-03-03T08:24:40;95078.41;;;9.70;100.00
20003;BME280;10162;41.600;23.806;2023-03-03T08:27:05;95064.47;;;9.84;100.00
20003;BME280;10162;41.600;23.806;2023-03-03T08:29:32;95055.19;;;10.57;96.61
20003;BME280;10162;41.600;23.806;2023-03-03T08:31:58;95074.00;;;11.00;93.01
20003;BME280;10162;41.600;23.806;2023-03-03T08:34:25;95069.38;;;11.02;93.93
20003;BME280;10162;41.600;23.806;2023-03-03T08:36:50;95026.28;;;10.65;93.64
20003;BME280;10162;41.600;23.806;2023-03-03T08:39:17;95073.78;;;10.88;93.84
20003;BME280;10162;41.600;23.806;2023-03-03T08:41:43;95077.00;;;10.90;95.03
20003;BME280;10162;41.600;23.806;2023-03-03T08:44:10;95064.09;;;10.69;94.47
20003;BME280;10162;41.600;23.806;2023-03-03T08:46:36;95068.69;;;10.67;96.66
20003;BME280;10162;41.600;23.806;2023-03-03T08:49:04;95076.00;;;10.37;96.59
20003;BME280;10162;41.600;23.806;2023-03-03T08:51:29;95075.25;;;10.50;98.33
20003;BME280;10162;41.600;23.806;2023-03-03T08:53:59;95046.25;;;10.31;93.32
20003;BME280;10162;41.600;23.806;2023-03-03T08:56:24;95073.31;;;10.71;94.76
20003;BME280;10162;41.600;23.806;2023-03-03T08:58:51;95078.28;;;11.14;92.36
20003;BME280;10162;41.600;23.806;2023-03-03T09:01:17;95057.75;;;10.44;91.37
20003;BME280;10162;41.600;23.806;2023-03-03T09:03:46;95053.03;;;10.73;93.09
20003;BME280;10162;41.600;23.806;2023-03-03T09:06:12;95040.59;;;10.95;94.86
20003;BME280;10162;41.600;23.806;2023-03-03T09:08:41;95057.28;;;10.81;90.18
20003;BME280;10162;41.600;23.806;2023-03-03T09:11:11;95059.63;;;10.56;94.34
20003;BME280;10162;41.600;23.806;2023-03-03T09:13:38;95068.78;;;11.00;93.24
20003;BME280;10162;41.600;23.806;2023-03-03T09:16:13;95074.69;;;10.61;92.95
20003;BME280;10162;41.600;23.806;2023-03-03T09:18:42;95053.16;;;10.46;92.91
20003;BME280;10162;41.600;23.806;2023-03-03T09:21:21;95057.72;;;10.30;96.19
20003;BME280;10162;41.600;23.806;2023-03-03T09:23:53;95072.19;;;10.33;97.91
20003;BME280;10162;41.600;23.806;2023-03-03T09:26:30;95086.72;;;10.49;97.87
20003;BME280;10162;41.600;23.806;2023-03-03T09:31:39;95099.31;;;10.04;98.00
20003;BME280;10162;41.600;23.806;2023-03-03T09:37:21;95085.41;;;9.41;100.00
20003;BME280;10162;41.600;23.806;2023-03-03T09:39:50;95058.91;;;9.66;100.00
20003;BME280;10162;41.600;23.806;2023-03-03T09:50:59;95084.38;;;9.91;100.00
20003;BME280;10162;41.600;23.806;2023-03-03T10:05:58;95090.31;;;10.07;98.71
20003;BME280;10162;41.600;23.806;2023-03-03T10:12:05;95062.56;;;10.06;96.77
20003;BME280;10162;41.600;23.806;2023-03-03T10:20:11;95078.44;;;10.04;95.42
20003;BME280;10162;41.600;23.806;2023-03-03T10:31:15;95035.03;;;10.03;92.68
20003;BME280;10162;41.600;23.806;2023-03-03T10:39:37;95071.34;;;10.19;96.15
20003;BME280;10162;41.600;23.806;2023-03-03T10:46:06;95062.63;;;10.12;92.86
20003;BME280;10162;41.600;23.806;2023-03-03T11:02:38;95037.94;;;9.87;92.47
20003;BME280;10162;41.600;23.806;2023-03-03T11:05:20;95053.38;;;9.82;93.66
20003;BME280;10162;41.600;23.806;2023-03-03T11:07:57;95020.88;;;10.25;93.09
20003;BME280;10162;41.600;23.806;2023-03-03T11:13:44;95037.28;;;10.54;91.80
20003;BME280;10162;41.600;23.806;2023-03-03T11:16:23;95035.34;;;10.75;92.37
20003;BME280;10162;41.600;23.806;2023-03-03T11:28:02;95026.28;;;10.78;89.54
20003;BME280;10162;41.600;23.806;2023-03-03T11:30:27;95014.63;;;10.81;91.34
20003;BME280;10162;41.600;23.806;2023-03-03T11:33:21;95007.75;;;10.66;88.76
20003;BME280;10162;41.600;23.806;2023-03-03T11:38:57;94994.06;;;10.51;88.50
20003;BME280;10162;41.600;23.806;2023-03-03T11:41:49;94988.50;;;10.87;88.12
20003;BME280;10162;41.600;23.806;2023-03-03T11:44:36;95015.47;;;11.14;86.43
20003;BME280;10162;41.600;23.806;2023-03-03T11:47:23;94989.06;;;10.69;84.18
20003;BME280;10162;41.600;23.806;2023-03-03T11:52:54;95008.63;;;11.79;82.31
20003;BME280;10162;41.600;23.806;2023-03-03T12:03:51;95005.31;;;12.03;82.30
20003;BME280;10162;41.600;23.806;2023-03-03T12:12:00;94965.97;;;11.39;80.87
20003;BME280;10162;41.600;23.806;2023-03-03T12:17:23;94984.34;;;12.10;79.36
20003;BME280;10162;41.600;23.806;2023-03-03T12:28:56;94984.00;;;11.86;83.16
20003;BME280;10162;41.600;23.806;2023-03-03T12:34:25;94973.66;;;12.11;80.38
20003;BME280;10162;41.600;23.806;2023-03-03T12:37:31;94982.69;;;12.15;79.07
20003;BME280;10162;41.600;23.806;2023-03-03T12:40:43;94981.00;;;11.89;79.80
20003;BME280;10162;41.600;23.806;2023-03-03T12:48:46;94958.06;;;11.65;80.14
20003;BME280;10162;41.600;23.806;2023-03-03T12:54:17;94984.25;;;11.78;81.11
20003;BME280;10162;41.600;23.806;2023-03-03T12:57:08;94985.59;;;12.00;81.34
20003;BME280;10162;41.600;23.806;2023-03-03T13:05:28;94961.59;;;11.97;79.52
20003;BME280;10162;41.600;23.806;2023-03-03T13:10:41;94971.72;;;11.80;81.43
20003;BME280;10162;41.600;23.806;2023-03-03T13:13:16;94964.81;;;12.06;79.65
20003;BME280;10162;41.600;23.806;2023-03-03T13:15:59;94963.97;;;12.18;80.20
20003;BME280;10162;41.600;23.806;2023-03-03T13:26:34;94949.19;;;12.93;77.48
20003;BME280;10162;41.600;23.806;2023-03-03T13:29:18;94954.41;;;13.49;75.38
20003;BME280;10162;41.600;23.806;2023-03-03T13:32:09;94958.97;;;13.04;76.98
20003;BME280;10162;41.600;23.806;2023-03-03T13:35:00;94952.00;;;12.98;75.13
20003;BME280;10162;41.600;23.806;2023-03-03T13:37:48;94923.34;;;12.65;73.64
20003;BME280;10162;41.600;23.806;2023-03-03T13:43:17;94960.06;;;13.71;72.67
20003;BME280;10162;41.600;23.806;2023-03-03T14:00:35;94946.50;;;11.99;79.67
20003;BME280;10162;41.600;23.806;2023-03-03T14:03:13;94949.72;;;12.01;80.47
20003;BME280;10162;41.600;23.806;2023-03-03T14:05:49;94947.69;;;12.03;81.44
20003;BME280;10162;41.600;23.806;2023-03-03T14:08:19;94943.50;;;11.89;81.38
20003;BME280;10162;41.600;23.806;2023-03-03T14:11:10;94926.19;;;11.81;81.63
20003;BME280;10162;41.600;23.806;2023-03-03T14:16:20;94943.88;;;11.99;80.71
20003;BME280;10162;41.600;23.806;2023-03-03T14:18:58;94924.81;;;11.79;81.32
20003;BME280;10162;41.600;23.806;2023-03-03T14:21:39;94933.69;;;11.78;81.71
20003;BME280;10162;41.600;23.806;2023-03-03T14:24:19;94941.53;;;11.65;81.78
20003;BME280;10162;41.600;23.806;2023-03-03T14:26:56;94918.19;;;11.56;83.82
20003;BME280;10162;41.600;23.806;2023-03-03T14:29:44;94940.72;;;11.57;83.87
20003;BME280;10162;41.600;23.806;2023-03-03T14:32:26;94928.44;;;11.58;85.30
20003;BME280;10162;41.600;23.806;2023-03-03T14:35:01;94931.31;;;11.30;85.11
20003;BME280;10162;41.600;23.806;2023-03-03T14:37:44;94946.41;;;11.35;84.37
20003;BME280;10162;41.600;23.806;2023-03-03T14:40:30;94916.25;;;10.99;85.76
20003;BME280;10162;41.600;23.806;2023-03-03T14:42:59;94906.81;;;10.85;86.84
20003;BME280;10162;41.600;23.806;2023-03-03T14:45:40;94917.66;;;11.08;86.83
20003;BME280;10162;41.600;23.806;2023-03-03T14:48:21;94939.19;;;11.24;87.25
20003;BME280;10162;41.600;23.806;2023-03-03T14:53:51;94928.94;;;10.76;89.15
20003;BME280;10162;41.600;23.806;2023-03-03T15:04:37;94930.13;;;10.73;88.64
20003;BME280;10162;41.600;23.806;2023-03-03T15:07:27;94905.81;;;10.73;88.67
20003;BME280;10162;41.600;23.806;2023-03-03T15:09:57;94914.25;;;10.75;89.44
20003;BME280;10162;41.600;23.806;2023-03-03T15:12:25;94921.09;;;10.83;89.77
20003;BME280;10162;41.600;23.806;2023-03-03T15:15:12;94920.88;;;10.84;89.44
20003;BME280;10162;41.600;23.806;2023-03-03T15:24:04;94939.00;;;10.79;89.29
20003;BME280;10162;41.600;23.806;2023-03-03T15:35:52;94931.56;;;10.76;87.54
20003;BME280;10162;41.600;23.806;2023-03-03T15:42:13;94919.06;;;10.58;87.76
20003;BME280;10162;41.600;23.806;2023-03-03T15:47:25;94940.16;;;10.50;90.57
20003;BME280;10162;41.600;23.806;2023-03-03T15:56:57;94926.22;;;10.17;91.96
20003;BME280;10162;41.600;23.806;2023-03-03T16:02:54;94920.78;;;9.71;93.58
20003;BME280;10162;41.600;23.806;2023-03-03T16:05:30;94952.13;;;9.71;95.70
20003;BME280;10162;41.600;23.806;2023-03-03T16:32:27;94979.72;;;8.96;100.00
20003;BME280;10162;41.600;23.806;2023-03-03T16:35:18;94990.25;;;9.09;100.00
20003;BME280;10162;41.600;23.806;2023-03-03T16:38:13;94997.84;;;9.04;100.00
20003;BME280;10162;41.600;23.806;2023-03-03T16:43:19;95004.56;;;8.92;100.00
20003;BME280;10162;41.600;23.806;2023-03-03T16:45:48;94999.03;;;8.81;100.00
20003;BME280;10162;41.600;23.806;2023-03-03T16:52:06;95014.69;;;8.81;100.00
20003;BME280;10162;41.600;23.806;2023-03-03T16:57:26;95012.47;;;8.42;100.00
20003;BME280;10162;41.600;23.806;2023-03-03T17:06:26;95013.69;;;7.95;100.00
20003;BME280;10162;41.600;23.806;2023-03-03T17:09:14;95017.75;;;7.68;100.00
20003;BME280;10162;41.600;23.806;2023-03-03T17:20:10;95038.38;;;7.55;100.00
20003;BME280;10162;41.600;23.806;2023-03-03T17:31:12;95043.47;;;7.63;100.00
20003;BME280;10162;41.600;23.806;2023-03-03T17:47:49;95073.59;;;7.05;100.00
20003;BME280;10162;41.600;23.806;2023-03-03T17:53:45;95078.81;;;7.05;100.00
20003;BME280;10162;41.600;23.806;2023-03-03T18:34:08;95124.38;;;6.23;100.00
20003;BME280;10162;41.600;23.806;2023-03-03T19:00:07;95147.34;;;6.82;100.00
20003;BME280;10162;41.600;23.806;2023-03-03T19:02:37;95125.09;;;6.79;100.00
20003;BME280;10162;41.600;23.806;2023-03-03T19:05:36;95132.06;;;6.79;100.00
20003;BME280;10162;41.600;23.806;2023-03-03T19:11:41;95160.72;;;6.32;100.00
20003;BME280;10162;41.600;23.806;2023-03-03T19:14:51;95157.25;;;6.47;100.00
20003;BME280;10162;41.600;23.806;2023-03-03T19:23:14;95158.19;;;6.54;100.00
20003;BME280;10162;41.600;23.806;2023-03-03T19:25:40;95137.81;;;6.35;100.00
20003;BME280;10162;41.600;23.806;2023-03-03T19:34:56;95155.16;;;6.43;100.00
20003;BME280;10162;41.600;23.806;2023-03-03T20:26:33;95177.22;;;4.69;100.00
20003;BME280;10162;41.600;23.806;2023-03-03T20:48:34;95194.28;;;4.87;100.00
20003;BME280;10162;41.600;23.806;2023-03-03T21:08:56;95186.94;;;4.67;100.00
20003;BME280;10162;41.600;23.806;2023-03-03T21:16:32;95173.63;;;4.62;100.00
20003;BME280;10162;41.600;23.806;2023-03-03T21:23:11;95165.47;;;4.06;100.00
20003;BME280;10162;41.600;23.806;2023-03-03T21:30:09;95176.16;;;4.37;100.00
20003;BME280;10162;41.600;23.806;2023-03-03T21:32:50;95178.81;;;4.20;100.00
20003;BME280;10162;41.600;23.806;2023-03-03T21:35:22;95164.38;;;4.09;100.00
20003;BME280;10162;41.600;23.806;2023-03-03T21:45:14;95176.28;;;4.02;100.00
20003;BME280;10162;41.600;23.806;2023-03-03T21:51:59;95201.38;;;4.35;100.00
20003;BME280;10162;41.600;23.806;2023-03-03T21:54:26;95193.66;;;4.43;100.00
20003;BME280;10162;41.600;23.806;2023-03-03T21:57:38;95207.13;;;4.63;100.00
20003;BME280;10162;41.600;23.806;2023-03-03T22:09:02;95212.16;;;4.65;100.00
20003;BME280;10162;41.600;23.806;2023-03-03T22:24:17;95207.63;;;5.17;100.00
20003;BME280;10162;41.600;23.806;2023-03-03T22:39:54;95212.69;;;5.34;100.00
20003;BME280;10162;41.600;23.806;2023-03-03T22:47:06;95191.94;;;5.51;100.00
20003;BME280;10162;41.600;23.806;2023-03-03T23:14:49;95189.72;;;4.39;100.00
20003;BME280;10162;41.600;23.806;2023-03-03T23:17:15;95143.69;;;4.09;100.00
20003;BME280;10162;41.600;23.806;2023-03-03T23:59:24;95204.53;;;5.05;100.00
